sensor_id;sensor_type;location;lat;lon;timestamp;pressure;altitude;pressure_sealevel;temperature;humidity
73457;BME280;61691;53.072;6.582;2023-07-13T00:01:53;101231.13;;;17.34;62.94
73457;BME280;61691;53.072;6.582;2023-07-13T00:04:22;101213.03;;;17.28;63.06
73457;BME280;61691;53.072;6.582;2023-07-13T00:06:49;101195.63;;;17.16;63.21
73457;BME280;61691;53.072;6.582;2023-07-13T00:09:17;101218.56;;;17.35;63.80
73457;BME280;61691;53.072;6.582;2023-07-13T00:11:45;101224.06;;;17.33;63.79
73457;BME280;61691;53.072;6.582;2023-07-13T00:14:14;101225.75;;;17.34;63.71
73457;BME280;61691;53.072;6.582;2023-07-13T00:16:42;101157.13;;;16.93;63.59
73457;BME280;61691;53.072;6.582;2023-07-13T00:19:11;101231.13;;;17.34;63.73
73457;BME280;61691;53.072;6.582;2023-07-13T00:21:39;101227.75;;;17.32;63.91
73457;BME280;61691;53.072;6.582;2023-07-13T00:24:14;101223.41;;;17.23;63.95
73457;BME280;61691;53.072;6.582;2023-07-13T00:26:42;101215.53;;;17.22;63.97
73457;BME280;61691;53.072;6.582;2023-07-13T00:29:12;101225.91;;;17.25;64.64
73457;BME280;61691;53.072;6.582;2023-07-13T00:31:40;101216.72;;;17.19;64.34
73457;BME280;61691;53.072;6.582;2023-07-13T00:34:07;101210.16;;;17.22;64.54
73457;BME280;61691;53.072;6.582;2023-07-13T00:36:33;101205.34;;;17.17;64.72
73457;BME280;61691;53.072;6.582;2023-07-13T00:39:00;101230.28;;;17.34;65.00
73457;BME280;61691;53.072;6.582;2023-07-13T00:41:27;101230.13;;;17.35;65.07
73457;BME280;61691;53.072;6.582;2023-07-13T00:43:54;101218.41;;;17.36;65.14
73457;BME280;61691;53.072;6.582;2023-07-13T00:46:22;101224.75;;;17.44;65.40
73457;BME280;61691;53.072;6.582;2023-07-13T00:48:50;101211.00;;;17.38;65.04
73457;BME280;61691;53.072;6.582;2023-07-13T00:51:20;101198.59;;;17.29;65.51
73457;BME280;61691;53.072;6.582;2023-07-13T00:53:49;101235.13;;;17.47;65.28
73457;BME280;61691;53.072;6.582;2023-07-13T00:56:17;101217.03;;;17.40;65.34
73457;BME280;61691;53.072;6.582;2023-07-13T00:58:44;101221.88;;;17.45;65.69
73457;BME280;61691;53.072;6.582;2023-07-13T01:01:11;101195.94;;;17.29;65.67
73457;BME280;61691;53.072;6.582;2023-07-13T01:03:39;101230.44;;;17.49;65.93
73457;BME280;61691;53.072;6.582;2023-07-13T01:06:07;101240.16;;;17.50;65.92
73457;BME280;61691;53.072;6.582;2023-07-13T01:08:35;101220.72;;;17.39;66.34
73457;BME280;61691;53.072;6.582;2023-07-13T01:11:02;101215.53;;;17.30;66.61
73457;BME280;61691;53.072;6.582;2023-07-13T01:13:29;101231.09;;;17.42;66.30
73457;BME280;61691;53.072;6.582;2023-07-13T01:15:57;101247.50;;;17.48;66.59
73457;BME280;61691;53.072;6.582;2023-07-13T01:18:26;101239.16;;;17.42;66.92
73457;BME280;61691;53.072;6.582;2023-07-13T01:21:03;101229.28;;;17.35;66.82
73457;BME280;61691;53.072;6.582;2023-07-13T01:23:31;101253.38;;;17.51;66.84
73457;BME280;61691;53.072;6.582;2023-07-13T01:25:58;101212.69;;;17.39;66.83
73457;BME280;61691;53.072;6.582;2023-07-13T01:28:26;101233.78;;;17.51;67.21
73457;BME280;61691;53.072;6.582;2023-07-13T01:30:56;101236.47;;;17.51;67.62
73457;BME280;61691;53.072;6.582;2023-07-13T01:33:23;101210.84;;;17.32;67.50
73457;BME280;61691;53.072;6.582;2023-07-13T01:35:50;101240.16;;;17.50;67.59
73457;BME280;61691;53.072;6.582;2023-07-13T01:38:18;101230.09;;;17.44;67.72
73457;BME280;61691;53.072;6.582;2023-07-13T01:40:46;101229.06;;;17.45;68.17
73457;BME280;61691;53.072;6.582;2023-07-13T01:43:13;101206.31;;;17.32;68.10
73457;BME280;61691;53.072;6.582;2023-07-13T01:45:40;101218.03;;;17.39;68.23
73457;BME280;61691;53.072;6.582;2023-07-13T01:48:08;101235.63;;;17.50;68.24
73457;BME280;61691;53.072;6.582;2023-07-13T01:50:35;101206.84;;;17.36;68.64
73457;BME280;61691;53.072;6.582;2023-07-13T01:53:03;101244.81;;;17.56;68.58
73457;BME280;61691;53.072;6.582;2023-07-13T01:55:30;101241.47;;;17.54;68.73
73457;BME280;61691;53.072;6.582;2023-07-13T01:57:57;101233.44;;;17.46;68.85
73457;BME280;61691;53.072;6.582;2023-07-13T02:00:24;101220.72;;;17.39;68.77
73457;BME280;61691;53.072;6.582;2023-07-13T02:02:51;101228.44;;;17.42;69.11
73457;BME280;61691;53.072;6.582;2023-07-13T02:05:19;101251.19;;;17.55;69.17
73457;BME280;61691;53.072;6.582;2023-07-13T02:07:46;101225.06;;;17.40;70.07
73457;BME280;61691;53.072;6.582;2023-07-13T02:10:12;101228.44;;;17.42;69.31
73457;BME280;61691;53.072;6.582;2023-07-13T02:12:40;101239.16;;;17.51;69.26
73457;BME280;61691;53.072;6.582;2023-07-13T02:15:07;101253.53;;;17.58;69.92
73457;BME280;61691;53.072;6.582;2023-07-13T02:17:35;101247.19;;;17.59;69.77
73457;BME280;61691;53.072;6.582;2023-07-13T02:20:04;101184.56;;;17.19;70.01
73457;BME280;61691;53.072;6.582;2023-07-13T02:22:31;101249.84;;;17.59;69.50
73457;BME280;61691;53.072;6.582;2023-07-13T02:24:58;101223.06;;;17.34;69.92
73457;BME280;61691;53.072;6.582;2023-07-13T02:27:25;101251.88;;;17.49;69.65
73457;BME280;61691;53.072;6.582;2023-07-13T02:29:52;101255.56;;;17.48;70.10
73457;BME280;61691;53.072;6.582;2023-07-13T02:32:19;101241.84;;;17.42;69.80
73457;BME280;61691;53.072;6.582;2023-07-13T02:34:46;101245.00;;;17.46;70.06
73457;BME280;61691;53.072;6.582;2023-07-13T02:37:13;101254.22;;;17.44;70.24
73457;BME280;61691;53.072;6.582;2023-07-13T02:39:40;101256.41;;;17.40;70.14
73457;BME280;61691;53.072;6.582;2023-07-13T02:42:07;101237.16;;;17.28;70.57
73457;BME280;61691;53.072;6.582;2023-07-13T02:44:34;101242.84;;;17.25;70.41
73457;BME280;61691;53.072;6.582;2023-07-13T02:47:01;101226.44;;;17.12;70.27
73457;BME280;61691;53.072;6.582;2023-07-13T02:49:28;101239.31;;;17.17;70.56
73457;BME280;61691;53.072;6.582;2023-07-13T02:51:54;101250.88;;;17.17;70.66
73457;BME280;61691;53.072;6.582;2023-07-13T02:54:21;101244.50;;;17.10;70.30
73457;BME280;61691;53.072;6.582;2023-07-13T02:56:48;101246.88;;;17.05;70.81
73457;BME280;61691;53.072;6.582;2023-07-13T02:59:15;101238.31;;;16.93;70.68
73457;BME280;61691;53.072;6.582;2023-07-13T03:01:42;101233.13;;;16.84;71.05
73457;BME280;61691;53.072;6.582;2023-07-13T03:04:08;101250.53;;;16.88;71.35
73457;BME280;61691;53.072;6.582;2023-07-13T03:06:35;101213.84;;;16.72;70.93
73457;BME280;61691;53.072;6.582;2023-07-13T03:09:02;101252.19;;;16.89;71.17
73457;BME280;61691;53.072;6.582;2023-07-13T03:11:30;101244.16;;;16.81;71.26
73457;BME280;61691;53.072;6.582;2023-07-13T03:13:57;101250.34;;;16.81;71.19
73457;BME280;61691;53.072;6.582;2023-07-13T03:16:24;101231.41;;;16.67;71.41
73457;BME280;61691;53.072;6.582;2023-07-13T03:18:51;101249.34;;;16.74;71.84
73457;BME280;61691;53.072;6.582;2023-07-13T03:21:17;101244.13;;;16.64;71.69
73457;BME280;61691;53.072;6.582;2023-07-13T03:23:44;101232.66;;;16.54;71.98
73457;BME280;61691;53.072;6.582;2023-07-13T03:26:14;101257.84;;;16.70;72.00
73457;BME280;61691;53.072;6.582;2023-07-13T03:28:42;101259.03;;;16.67;72.02
73457;BME280;61691;53.072;6.582;2023-07-13T03:31:15;101256.81;;;16.62;72.34
73457;BME280;61691;53.072;6.582;2023-07-13T03:33:43;101253.31;;;16.70;72.51
73457;BME280;61691;53.072;6.582;2023-07-13T03:36:14;101262.56;;;16.76;72.62
73457;BME280;61691;53.072;6.582;2023-07-13T03:38:42;101232.06;;;16.60;72.56
73457;BME280;61691;53.072;6.582;2023-07-13T03:41:09;101257.84;;;16.78;72.75
73457;BME280;61691;53.072;6.582;2023-07-13T03:43:36;101262.22;;;16.79;72.80
73457;BME280;61691;53.072;6.582;2023-07-13T03:46:02;101253.84;;;16.74;72.78
73457;BME280;61691;53.072;6.582;2023-07-13T03:48:29;101245.78;;;16.66;73.00
73457;BME280;61691;53.072;6.582;2023-07-13T03:50:56;101256.19;;;16.69;72.67
73457;BME280;61691;53.072;6.582;2023-07-13T03:53:22;101280.28;;;16.85;72.85
73457;BME280;61691;53.072;6.582;2023-07-13T03:55:49;101200.03;;;16.35;72.74
73457;BME280;61691;53.072;6.582;2023-07-13T04:00:58;101279.63;;;16.83;73.12
73457;BME280;61691;53.072;6.582;2023-07-13T04:03:26;101272.59;;;16.82;72.99
73457;BME280;61691;53.072;6.582;2023-07-13T04:05:55;101263.19;;;16.70;73.07
73457;BME280;61691;53.072;6.582;2023-07-13T04:08:27;101288.31;;;16.85;72.96
73457;BME280;61691;53.072;6.582;2023-07-13T04:10:55;101284.34;;;16.89;73.21
73457;BME280;61691;53.072;6.582;2023-07-13T04:13:21;101267.94;;;16.84;73.09
73457;BME280;61691;53.072;6.582;2023-07-13T04:15:48;101294.56;;;17.01;73.14
73457;BME280;61691;53.072;6.582;2023-07-13T04:18:15;101299.59;;;17.05;72.92
73457;BME280;61691;53.072;6.582;2023-07-13T04:20:42;101285.19;;;17.06;72.77
73457;BME280;61691;53.072;6.582;2023-07-13T04:23:08;101306.81;;;17.28;72.63
73457;BME280;61691;53.072;6.582;2023-07-13T04:25:35;101286.03;;;17.38;72.63
73457;BME280;61691;53.072;6.582;2023-07-13T04:28:03;101267.63;;;17.27;72.17
73457;BME280;61691;53.072;6.582;2023-07-13T04:30:30;101293.75;;;17.41;72.24
73457;BME280;61691;53.072;6.582;2023-07-13T04:32:57;101288.22;;;17.35;72.28
73457;BME280;61691;53.072;6.582;2023-07-13T04:35:24;101295.75;;;17.48;72.54
73457;BME280;61691;53.072;6.582;2023-07-13T04:37:50;101306.63;;;18.03;72.94
73457;BME280;61691;53.072;6.582;2023-07-13T04:40:18;101286.41;;;18.70;72.38
73457;BME280;61691;53.072;6.582;2023-07-13T04:42:45;101310.25;;;19.42;70.75
73457;BME280;61691;53.072;6.582;2023-07-13T04:45:14;101292.66;;;19.39;69.66
73457;BME280;61691;53.072;6.582;2023-07-13T04:47:41;101294.19;;;19.33;68.71
73457;BME280;61691;53.072;6.582;2023-07-13T04:50:08;101318.50;;;19.40;68.43
73457;BME280;61691;53.072;6.582;2023-07-13T04:52:37;101301.47;;;19.25;67.74
73457;BME280;61691;53.072;6.582;2023-07-13T04:55:04;101315.28;;;19.22;67.36
73457;BME280;61691;53.072;6.582;2023-07-13T04:57:31;101323.75;;;19.11;67.41
73457;BME280;61691;53.072;6.582;2023-07-13T04:59:58;101303.44;;;18.85;67.50
73457;BME280;61691;53.072;6.582;2023-07-13T05:02:27;101299.78;;;18.78;67.25
73457;BME280;61691;53.072;6.582;2023-07-13T05:04:55;101323.50;;;18.98;67.60
73457;BME280;61691;53.072;6.582;2023-07-13T05:07:21;101330.69;;;19.28;68.00
73457;BME280;61691;53.072;6.582;2023-07-13T05:09:48;101306.78;;;19.56;67.28
73457;BME280;61691;53.072;6.582;2023-07-13T05:12:15;101308.50;;;19.71;66.88
73457;BME280;61691;53.072;6.582;2023-07-13T05:14:42;101311.88;;;20.03;66.21
73457;BME280;61691;53.072;6.582;2023-07-13T05:17:08;101327.78;;;20.57;66.11
73457;BME280;61691;53.072;6.582;2023-07-13T05:19:36;101326.38;;;21.33;65.17
73457;BME280;61691;53.072;6.582;2023-07-13T05:22:02;101337.00;;;22.11;63.35
73457;BME280;61691;53.072;6.582;2023-07-13T05:24:30;101281.38;;;22.64;61.67
73457;BME280;61691;53.072;6.582;2023-07-13T05:26:57;101333.84;;;23.70;59.62
73457;BME280;61691;53.072;6.582;2023-07-13T05:29:24;101319.81;;;24.33;57.39
73457;BME280;61691;53.072;6.582;2023-07-13T05:31:51;101334.81;;;24.86;55.43
73457;BME280;61691;53.072;6.582;2023-07-13T05:34:18;101349.31;;;25.43;53.57
73457;BME280;61691;53.072;6.582;2023-07-13T05:36:45;101339.38;;;25.87;51.71
73457;BME280;61691;53.072;6.582;2023-07-13T05:39:11;101348.53;;;26.35;50.29
73457;BME280;61691;53.072;6.582;2023-07-13T05:41:38;101337.66;;;26.72;48.35
73457;BME280;61691;53.072;6.582;2023-07-13T05:44:05;101344.19;;;27.01;47.06
73457;BME280;61691;53.072;6.582;2023-07-13T05:46:32;101350.00;;;27.46;45.54
73457;BME280;61691;53.072;6.582;2023-07-13T05:48:59;101355.81;;;27.79;44.73
73457;BME280;61691;53.072;6.582;2023-07-13T05:51:26;101364.47;;;28.23;43.98
73457;BME280;61691;53.072;6.582;2023-07-13T05:53:53;101369.25;;;28.67;42.70
73457;BME280;61691;53.072;6.582;2023-07-13T05:56:20;101348.28;;;29.08;41.48
73457;BME280;61691;53.072;6.582;2023-07-13T05:58:48;101364.34;;;29.66;40.48
73457;BME280;61691;53.072;6.582;2023-07-13T06:01:16;101370.00;;;29.93;38.27
73457;BME280;61691;53.072;6.582;2023-07-13T06:03:43;101375.84;;;30.18;38.15
73457;BME280;61691;53.072;6.582;2023-07-13T06:06:10;101372.31;;;30.56;37.60
73457;BME280;61691;53.072;6.582;2023-07-13T06:08:37;101382.34;;;30.94;36.28
73457;BME280;61691;53.072;6.582;2023-07-13T06:11:19;101385.28;;;31.09;36.21
73457;BME280;61691;53.072;6.582;2023-07-13T06:13:46;101379.25;;;31.34;35.10
73457;BME280;61691;53.072;6.582;2023-07-13T06:16:14;101363.78;;;31.50;34.49
73457;BME280;61691;53.072;6.582;2023-07-13T06:18:41;101354.63;;;31.66;33.89
73457;BME280;61691;53.072;6.582;2023-07-13T06:21:13;101363.88;;;31.92;33.86
73457;BME280;61691;53.072;6.582;2023-07-13T06:23:41;101373.75;;;32.35;33.58
73457;BME280;61691;53.072;6.582;2023-07-13T06:26:08;101383.78;;;32.66;32.25
73457;BME280;61691;53.072;6.582;2023-07-13T06:28:36;101366.00;;;32.69;31.62
73457;BME280;61691;53.072;6.582;2023-07-13T06:31:06;101389.19;;;33.03;32.18
73457;BME280;61691;53.072;6.582;2023-07-13T06:33:33;101365.06;;;33.21;30.90
73457;BME280;61691;53.072;6.582;2023-07-13T06:36:02;101378.28;;;33.34;30.78
73457;BME280;61691;53.072;6.582;2023-07-13T06:38:29;101384.53;;;33.19;30.38
73457;BME280;61691;53.072;6.582;2023-07-13T06:40:56;101382.63;;;32.47;30.40
73457;BME280;61691;53.072;6.582;2023-07-13T06:43:23;101383.16;;;31.70;31.41
73457;BME280;61691;53.072;6.582;2023-07-13T06:45:51;101389.59;;;30.84;32.98
73457;BME280;61691;53.072;6.582;2023-07-13T06:48:20;101388.03;;;30.66;33.94
73457;BME280;61691;53.072;6.582;2023-07-13T06:50:48;101397.44;;;31.19;33.81
73457;BME280;61691;53.072;6.582;2023-07-13T06:53:17;101396.66;;;31.77;33.55
73457;BME280;61691;53.072;6.582;2023-07-13T06:55:45;101391.16;;;32.09;31.88
73457;BME280;61691;53.072;6.582;2023-07-13T06:58:12;101402.69;;;32.53;31.42
73457;BME280;61691;53.072;6.582;2023-07-13T07:00:39;101390.47;;;32.86;30.41
73457;BME280;61691;53.072;6.582;2023-07-13T07:03:07;101406.38;;;32.74;30.57
73457;BME280;61691;53.072;6.582;2023-07-13T07:05:34;101385.56;;;32.88;31.11
73457;BME280;61691;53.072;6.582;2023-07-13T07:08:01;101387.88;;;33.31;29.78
73457;BME280;61691;53.072;6.582;2023-07-13T07:10:30;101407.78;;;32.76;29.76
73457;BME280;61691;53.072;6.582;2023-07-13T07:12:57;101395.56;;;31.51;30.07
73457;BME280;61691;53.072;6.582;2023-07-13T07:15:23;101405.16;;;30.39;31.34
73457;BME280;61691;53.072;6.582;2023-07-13T07:17:50;101393.31;;;29.22;33.52
73457;BME280;61691;53.072;6.582;2023-07-13T07:20:17;101395.66;;;28.27;34.63
73457;BME280;61691;53.072;6.582;2023-07-13T07:22:44;101398.19;;;27.33;36.34
73457;BME280;61691;53.072;6.582;2023-07-13T07:25:11;101412.31;;;26.76;37.99
73457;BME280;61691;53.072;6.582;2023-07-13T07:27:37;101413.84;;;26.29;39.02
73457;BME280;61691;53.072;6.582;2023-07-13T07:30:07;101402.47;;;25.89;39.71
73457;BME280;61691;53.072;6.582;2023-07-13T07:32:37;101403.50;;;25.56;40.72
73457;BME280;61691;53.072;6.582;2023-07-13T07:35:07;101389.44;;;25.03;41.11
73457;BME280;61691;53.072;6.582;2023-07-13T07:37:34;101411.38;;;24.88;41.57
73457;BME280;61691;53.072;6.582;2023-07-13T07:40:04;101410.97;;;24.91;43.05
73457;BME280;61691;53.072;6.582;2023-07-13T07:42:34;101381.00;;;25.49;42.96
73457;BME280;61691;53.072;6.582;2023-07-13T07:45:00;101396.97;;;26.45;42.28
73457;BME280;61691;53.072;6.582;2023-07-13T07:47:28;101408.84;;;27.05;40.86
73457;BME280;61691;53.072;6.582;2023-07-13T07:49:54;101409.09;;;27.15;39.88
73457;BME280;61691;53.072;6.582;2023-07-13T07:52:21;101392.81;;;26.97;39.45
73457;BME280;61691;53.072;6.582;2023-07-13T07:54:48;101386.81;;;26.88;40.08
73457;BME280;61691;53.072;6.582;2023-07-13T07:57:17;101412.44;;;26.99;39.48
73457;BME280;61691;53.072;6.582;2023-07-13T08:00:05;101410.03;;;26.73;39.50
73457;BME280;61691;53.072;6.582;2023-07-13T08:02:35;101411.63;;;26.44;39.16
73457;BME280;61691;53.072;6.582;2023-07-13T08:05:04;101408.19;;;26.05;39.85
73457;BME280;61691;53.072;6.582;2023-07-13T08:07:36;101415.13;;;25.76;40.24
73457;BME280;61691;53.072;6.582;2023-07-13T08:10:03;101409.50;;;25.40;41.01
73457;BME280;61691;53.072;6.582;2023-07-13T08:12:34;101413.59;;;25.18;41.37
73457;BME280;61691;53.072;6.582;2023-07-13T08:15:04;101424.72;;;24.96;42.60
73457;BME280;61691;53.072;6.582;2023-07-13T08:17:32;101408.69;;;24.88;43.10
73457;BME280;61691;53.072;6.582;2023-07-13T08:19:58;101410.97;;;24.91;43.46
73457;BME280;61691;53.072;6.582;2023-07-13T08:22:26;101417.66;;;24.95;43.20
73457;BME280;61691;53.072;6.582;2023-07-13T08:24:53;101415.16;;;24.87;43.33
73457;BME280;61691;53.072;6.582;2023-07-13T08:27:24;101430.63;;;24.80;43.71
73457;BME280;61691;53.072;6.582;2023-07-13T08:29:51;101421.69;;;24.60;43.61
73457;BME280;61691;53.072;6.582;2023-07-13T08:32:20;101427.16;;;24.34;44.03
73457;BME280;61691;53.072;6.582;2023-07-13T08:34:47;101419.44;;;24.17;44.61
73457;BME280;61691;53.072;6.582;2023-07-13T08:37:15;101387.34;;;24.01;44.64
73457;BME280;61691;53.072;6.582;2023-07-13T08:39:43;101425.72;;;24.24;45.33
73457;BME280;61691;53.072;6.582;2023-07-13T08:45:23;101418.81;;;24.28;44.58
73457;BME280;61691;53.072;6.582;2023-07-13T08:47:53;101419.22;;;24.06;43.90
73457;BME280;61691;53.072;6.582;2023-07-13T08:50:25;101414.00;;;23.78;44.28
73457;BME280;61691;53.072;6.582;2023-07-13T08:52:55;101406.44;;;23.40;44.20
73457;BME280;61691;53.072;6.582;2023-07-13T08:55:31;101440.53;;;23.28;44.78
73457;BME280;61691;53.072;6.582;2023-07-13T08:58:05;101443.28;;;22.94;45.56
73457;BME280;61691;53.072;6.582;2023-07-13T09:00:41;101452.50;;;22.71;46.29
73457;BME280;61691;53.072;6.582;2023-07-13T09:03:18;101451.84;;;22.63;46.92
73457;BME280;61691;53.072;6.582;2023-07-13T09:05:52;101430.31;;;22.48;47.17
73457;BME280;61691;53.072;6.582;2023-07-13T09:11:36;101451.34;;;22.81;46.79
73457;BME280;61691;53.072;6.582;2023-07-13T09:14:33;101456.88;;;22.72;47.11
73457;BME280;61691;53.072;6.582;2023-07-13T09:17:14;101446.44;;;22.63;47.32
73457;BME280;61691;53.072;6.582;2023-07-13T09:19:46;101444.03;;;22.74;48.02
73457;BME280;61691;53.072;6.582;2023-07-13T09:22:17;101456.22;;;22.98;48.67
73457;BME280;61691;53.072;6.582;2023-07-13T09:24:53;101456.53;;;23.23;48.28
73457;BME280;61691;53.072;6.582;2023-07-13T09:27:29;101444.91;;;23.29;48.57
73457;BME280;61691;53.072;6.582;2023-07-13T09:30:19;101445.00;;;23.56;48.72
73457;BME280;61691;53.072;6.582;2023-07-13T09:32:51;101447.72;;;23.69;49.22
73457;BME280;61691;53.072;6.582;2023-07-13T09:35:22;101451.91;;;23.78;49.02
73457;BME280;61691;53.072;6.582;2023-07-13T09:37:50;101454.03;;;23.96;49.51
73457;BME280;61691;53.072;6.582;2023-07-13T09:40:25;101456.94;;;24.14;49.40
73457;BME280;61691;53.072;6.582;2023-07-13T09:42:56;101452.81;;;24.24;49.46
73457;BME280;61691;53.072;6.582;2023-07-13T09:45:29;101471.56;;;24.33;48.96
73457;BME280;61691;53.072;6.582;2023-07-13T09:48:04;101473.63;;;24.17;49.47
73457;BME280;61691;53.072;6.582;2023-07-13T09:50:32;101483.19;;;24.00;50.77
73457;BME280;61691;53.072;6.582;2023-07-13T09:53:01;101471.06;;;23.70;51.59
73457;BME280;61691;53.072;6.582;2023-07-13T09:55:34;101499.13;;;23.56;52.99
73457;BME280;61691;53.072;6.582;2023-07-13T09:58:04;101504.63;;;23.28;53.33
73457;BME280;61691;53.072;6.582;2023-07-13T10:00:36;101508.19;;;22.94;53.82
73457;BME280;61691;53.072;6.582;2023-07-13T10:03:20;101507.50;;;22.57;54.23
73457;BME280;61691;53.072;6.582;2023-07-13T10:05:50;101506.66;;;22.29;54.90
73457;BME280;61691;53.072;6.582;2023-07-13T10:08:26;101422.66;;;21.53;56.14
73457;BME280;61691;53.072;6.582;2023-07-13T10:10:59;101476.31;;;21.63;56.91
73457;BME280;61691;53.072;6.582;2023-07-13T10:13:34;101510.81;;;21.68;57.34
73457;BME280;61691;53.072;6.582;2023-07-13T10:16:04;101489.84;;;21.48;57.77
73457;BME280;61691;53.072;6.582;2023-07-13T10:18:54;101505.09;;;21.56;58.94
73457;BME280;61691;53.072;6.582;2023-07-13T10:21:27;101485.66;;;21.46;59.08
73457;BME280;61691;53.072;6.582;2023-07-13T10:24:20;101486.44;;;21.40;59.17
73457;BME280;61691;53.072;6.582;2023-07-13T10:26:58;101502.69;;;21.46;59.49
73457;BME280;61691;53.072;6.582;2023-07-13T10:29:28;101476.00;;;21.37;59.73
73457;BME280;61691;53.072;6.582;2023-07-13T10:31:56;101492.88;;;21.60;60.29
73457;BME280;61691;53.072;6.582;2023-07-13T10:34:24;101502.28;;;21.85;60.06
73457;BME280;61691;53.072;6.582;2023-07-13T10:36:51;101468.03;;;21.86;60.26
73457;BME280;61691;53.072;6.582;2023-07-13T10:39:25;101497.38;;;22.10;60.23
73457;BME280;61691;53.072;6.582;2023-07-13T10:41:57;101486.50;;;22.04;59.89
73457;BME280;61691;53.072;6.582;2023-07-13T10:44:31;101485.97;;;21.93;59.73
73457;BME280;61691;53.072;6.582;2023-07-13T10:47:05;101490.25;;;21.88;59.84
73457;BME280;61691;53.072;6.582;2023-07-13T10:49:34;101492.56;;;21.91;60.10
73457;BME280;61691;53.072;6.582;2023-07-13T10:52:03;101505.66;;;22.09;60.16
73457;BME280;61691;53.072;6.582;2023-07-13T10:54:32;101495.47;;;22.11;60.31
73457;BME280;61691;53.072;6.582;2023-07-13T10:57:19;101509.00;;;22.32;60.47
73457;BME280;61691;53.072;6.582;2023-07-13T11:00:17;101500.97;;;22.45;60.04
73457;BME280;61691;53.072;6.582;2023-07-13T11:02:56;101473.72;;;22.40;60.14
73457;BME280;61691;53.072;6.582;2023-07-13T11:05:30;101498.09;;;22.74;60.19
73457;BME280;61691;53.072;6.582;2023-07-13T11:10:57;101512.03;;;23.06;58.83
73457;BME280;61691;53.072;6.582;2023-07-13T11:18:47;101501.78;;;23.42;56.21
73457;BME280;61691;53.072;6.582;2023-07-13T11:21:26;101451.31;;;23.15;56.15
73457;BME280;61691;53.072;6.582;2023-07-13T11:26:50;101503.97;;;23.60;55.16
73457;BME280;61691;53.072;6.582;2023-07-13T11:30:25;101482.31;;;23.73;54.34
73457;BME280;61691;53.072;6.582;2023-07-13T11:33:10;101490.28;;;23.95;53.10
73457;BME280;61691;53.072;6.582;2023-07-13T11:38:28;101508.19;;;24.02;51.07
73457;BME280;61691;53.072;6.582;2023-07-13T11:41:01;101506.31;;;23.96;49.26
73457;BME280;61691;53.072;6.582;2023-07-13T11:43:30;101484.41;;;23.71;48.22
73457;BME280;61691;53.072;6.582;2023-07-13T11:45:56;101491.69;;;23.71;48.00
73457;BME280;61691;53.072;6.582;2023-07-13T11:48:27;101502.50;;;23.71;47.50
73457;BME280;61691;53.072;6.582;2023-07-13T11:50:58;101493.34;;;23.72;47.67
73457;BME280;61691;53.072;6.582;2023-07-13T11:53:28;101512.75;;;23.82;47.93
73457;BME280;61691;53.072;6.582;2023-07-13T11:55:57;101517.72;;;23.78;47.32
73457;BME280;61691;53.072;6.582;2023-07-13T11:58:26;101511.44;;;23.58;46.72
73457;BME280;61691;53.072;6.582;2023-07-13T12:00:58;101510.53;;;23.44;46.65
73457;BME280;61691;53.072;6.582;2023-07-13T12:03:25;101479.22;;;23.22;47.02
73457;BME280;61691;53.072;6.582;2023-07-13T12:05:57;101516.66;;;23.60;46.02
73457;BME280;61691;53.072;6.582;2023-07-13T12:08:24;101491.44;;;23.52;46.57
73457;BME280;61691;53.072;6.582;2023-07-13T12:11:00;101522.69;;;23.62;46.06
73457;BME280;61691;53.072;6.582;2023-07-13T12:13:36;101510.19;;;23.61;45.72
73457;BME280;61691;53.072;6.582;2023-07-13T12:16:17;101526.88;;;23.71;45.54
73457;BME280;61691;53.072;6.582;2023-07-13T12:18:47;101487.91;;;23.59;46.02
73457;BME280;61691;53.072;6.582;2023-07-13T12:21:18;101508.13;;;23.76;45.05
73457;BME280;61691;53.072;6.582;2023-07-13T12:23:48;101520.69;;;23.90;44.26
73457;BME280;61691;53.072;6.582;2023-07-13T12:26:17;101516.06;;;23.84;43.96
73457;BME280;61691;53.072;6.582;2023-07-13T12:28:52;101531.53;;;23.90;43.79
73457;BME280;61691;53.072;6.582;2023-07-13T12:31:26;101526.09;;;23.90;43.27
73457;BME280;61691;53.072;6.582;2023-07-13T12:36:36;101492.75;;;23.83;42.77
73457;BME280;61691;53.072;6.582;2023-07-13T12:39:13;101531.16;;;24.19;42.11
73457;BME280;61691;53.072;6.582;2023-07-13T12:41:41;101507.16;;;24.16;42.40
73457;BME280;61691;53.072;6.582;2023-07-13T12:44:13;101532.00;;;24.40;42.54
73457;BME280;61691;53.072;6.582;2023-07-13T12:46:53;101533.25;;;24.44;42.60
73457;BME280;61691;53.072;6.582;2023-07-13T12:49:24;101514.50;;;24.22;42.58
73457;BME280;61691;53.072;6.582;2023-07-13T12:51:56;101535.34;;;24.28;43.04
73457;BME280;61691;53.072;6.582;2023-07-13T12:54:24;101528.47;;;24.26;43.04
73457;BME280;61691;53.072;6.582;2023-07-13T12:56:52;101544.09;;;24.44;43.34
73457;BME280;61691;53.072;6.582;2023-07-13T12:59:31;101525.75;;;24.46;43.14
73457;BME280;61691;53.072;6.582;2023-07-13T13:01:59;101527.41;;;24.60;42.63
73457;BME280;61691;53.072;6.582;2023-07-13T13:04:27;101533.25;;;24.57;41.38
73457;BME280;61691;53.072;6.582;2023-07-13T13:07:02;101563.47;;;24.67;41.34
73457;BME280;61691;53.072;6.582;2023-07-13T13:09:30;101536.19;;;24.42;40.51
73457;BME280;61691;53.072;6.582;2023-07-13T13:11:57;101541.81;;;24.27;40.41
73457;BME280;61691;53.072;6.582;2023-07-13T13:14:24;101490.47;;;23.93;40.84
73457;BME280;61691;53.072;6.582;2023-07-13T13:16:52;101543.69;;;24.27;40.81
73457;BME280;61691;53.072;6.582;2023-07-13T13:19:21;101557.03;;;24.48;41.07
73457;BME280;61691;53.072;6.582;2023-07-13T13:21:49;101539.53;;;24.51;41.38
73457;BME280;61691;53.072;6.582;2023-07-13T13:24:20;101565.59;;;24.72;40.69
73457;BME280;61691;53.072;6.582;2023-07-13T13:26:51;101567.47;;;24.71;40.25
73457;BME280;61691;53.072;6.582;2023-07-13T13:29:23;101556.63;;;24.58;40.19